sensor_id;sensor_type;location;lat;lon;timestamp;pressure;altitude;pressure_sealevel;temperature
68012;BMP180;54794;48.348;7.878;2024-03-23T00:53:52;98382.00;;;14.90
68012;BMP180;54794;48.348;7.878;2024-03-23T00:56:18;98379.00;;;15.00
68012;BMP180;54794;48.348;7.878;2024-03-23T00:58:44;98373.00;;;15.00
68012;BMP180;54794;48.348;7.878;2024-03-23T01:01:09;98369.00;;;15.00
68012;BMP180;54794;48.348;7.878;2024-03-23T01:03:35;98354.00;;;14.90
68012;BMP180;54794;48.348;7.878;2024-03-23T01:06:02;98361.00;;;15.00
68012;BMP180;54794;48.348;7.878;2024-03-23T01:08:28;98376.00;;;15.00
68012;BMP180;54794;48.348;7.878;2024-03-23T01:11:00;98362.00;;;15.00
68012;BMP180;54794;48.348;7.878;2024-03-23T01:13:27;98364.00;;;15.00
68012;BMP180;54794;48.348;7.878;2024-03-23T01:15:54;98365.00;;;15.10
68012;BMP180;54794;48.348;7.878;2024-03-23T01:18:21;98350.00;;;15.10
68012;BMP180;54794;48.348;7.878;2024-03-23T01:20:46;98355.00;;;15.00
68012;BMP180;54794;48.348;7.878;2024-03-23T01:23:13;98358.00;;;15.00
68012;BMP180;54794;48.348;7.878;2024-03-23T01:25:39;98352.00;;;15.10
68012;BMP180;54794;48.348;7.878;2024-03-23T01:28:05;98345.00;;;14.90
68012;BMP180;54794;48.348;7.878;2024-03-23T01:30:35;98343.00;;;14.90
68012;BMP180;54794;48.348;7.878;2024-03-23T01:33:01;98342.00;;;14.90
68012;BMP180;54794;48.348;7.878;2024-03-23T01:35:28;98347.00;;;14.90
68012;BMP180;54794;48.348;7.878;2024-03-23T01:37:54;98342.00;;;14.90
68012;BMP180;54794;48.348;7.878;2024-03-23T01:40:20;98345.00;;;14.80
68012;BMP180;54794;48.348;7.878;2024-03-23T01:42:58;98353.00;;;14.90
68012;BMP180;54794;48.348;7.878;2024-03-23T01:45:24;98350.00;;;15.00
68012;BMP180;54794;48.348;7.878;2024-03-23T01:47:51;98351.00;;;14.90
68012;BMP180;54794;48.348;7.878;2024-03-23T01:50:19;98341.00;;;15.00
68012;BMP180;54794;48.348;7.878;2024-03-23T01:52:46;98351.00;;;15.00
68012;BMP180;54794;48.348;7.878;2024-03-23T01:55:12;98358.00;;;14.90
68012;BMP180;54794;48.348;7.878;2024-03-23T01:57:38;98366.00;;;15.10
68012;BMP180;54794;48.348;7.878;2024-03-23T02:00:04;98368.00;;;14.70
68012;BMP180;54794;48.348;7.878;2024-03-23T02:02:31;98363.00;;;14.70
68012;BMP180;54794;48.348;7.878;2024-03-23T02:04:57;98370.00;;;14.90
68012;BMP180;54794;48.348;7.878;2024-03-23T02:07:24;98366.00;;;14.70
68012;BMP180;54794;48.348;7.878;2024-03-23T02:09:51;98364.00;;;14.60
68012;BMP180;54794;48.348;7.878;2024-03-23T02:12:17;98370.00;;;14.70
68012;BMP180;54794;48.348;7.878;2024-03-23T02:14:43;98364.00;;;14.60
68012;BMP180;54794;48.348;7.878;2024-03-23T02:17:09;98358.00;;;14.60
68012;BMP180;54794;48.348;7.878;2024-03-23T02:19:35;98354.00;;;14.50
68012;BMP180;54794;48.348;7.878;2024-03-23T02:22:01;98349.00;;;14.60
68012;BMP180;54794;48.348;7.878;2024-03-23T02:24:29;98351.00;;;14.40
68012;BMP180;54794;48.348;7.878;2024-03-23T02:26:55;98350.00;;;14.60
68012;BMP180;54794;48.348;7.878;2024-03-23T02:29:20;98355.00;;;14.50
68012;BMP180;54794;48.348;7.878;2024-03-23T02:31:46;98347.00;;;14.50
68012;BMP180;54794;48.348;7.878;2024-03-23T02:34:12;98346.00;;;14.50
68012;BMP180;54794;48.348;7.878;2024-03-23T02:36:38;98334.00;;;14.50
68012;BMP180;54794;48.348;7.878;2024-03-23T02:39:03;98324.00;;;14.40
68012;BMP180;54794;48.348;7.878;2024-03-23T02:41:29;98319.00;;;14.50
68012;BMP180;54794;48.348;7.878;2024-03-23T02:43:55;98315.00;;;14.60
68012;BMP180;54794;48.348;7.878;2024-03-23T02:46:21;98314.00;;;14.40
68012;BMP180;54794;48.348;7.878;2024-03-23T02:48:48;98299.00;;;14.50
68012;BMP180;54794;48.348;7.878;2024-03-23T02:51:14;98303.00;;;14.00
68012;BMP180;54794;48.348;7.878;2024-03-23T02:53:41;98292.00;;;14.00
68012;BMP180;54794;48.348;7.878;2024-03-23T02:56:06;98289.00;;;13.80
68012;BMP180;54794;48.348;7.878;2024-03-23T02:58:32;98288.00;;;14.10
68012;BMP180;54794;48.348;7.878;2024-03-23T03:00:58;98287.00;;;13.70
68012;BMP180;54794;48.348;7.878;2024-03-23T03:03:24;98286.00;;;13.80
68012;BMP180;54794;48.348;7.878;2024-03-23T03:05:56;98278.00;;;13.90
68012;BMP180;54794;48.348;7.878;2024-03-23T03:08:22;98275.00;;;13.60
68012;BMP180;54794;48.348;7.878;2024-03-23T03:10:48;98271.00;;;14.00
68012;BMP180;54794;48.348;7.878;2024-03-23T03:13:14;98275.00;;;13.90
68012;BMP180;54794;48.348;7.878;2024-03-23T03:15:41;98269.00;;;14.10
68012;BMP180;54794;48.348;7.878;2024-03-23T03:18:07;98273.00;;;13.90
68012;BMP180;54794;48.348;7.878;2024-03-23T03:20:32;98284.00;;;13.90
68012;BMP180;54794;48.348;7.878;2024-03-23T03:22:58;98274.00;;;13.90
68012;BMP180;54794;48.348;7.878;2024-03-23T03:25:24;98275.00;;;13.90
68012;BMP180;54794;48.348;7.878;2024-03-23T03:27:50;98254.00;;;14.00
68012;BMP180;54794;48.348;7.878;2024-03-23T03:30:16;98248.00;;;14.00
68012;BMP180;54794;48.348;7.878;2024-03-23T03:32:42;98250.00;;;13.90
68012;BMP180;54794;48.348;7.878;2024-03-23T03:35:08;98247.00;;;13.90
68012;BMP180;54794;48.348;7.878;2024-03-23T03:37:34;98250.00;;;13.90
68012;BMP180;54794;48.348;7.878;2024-03-23T03:40:00;98236.00;;;13.90
68012;BMP180;54794;48.348;7.878;2024-03-23T03:42:25;98237.00;;;14.00
68012;BMP180;54794;48.348;7.878;2024-03-23T03:44:51;98235.00;;;14.00
68012;BMP180;54794;48.348;7.878;2024-03-23T03:47:19;98240.00;;;14.00
68012;BMP180;54794;48.348;7.878;2024-03-23T03:49:45;98259.00;;;14.00
68012;BMP180;54794;48.348;7.878;2024-03-23T03:52:11;98282.00;;;14.00
68012;BMP180;54794;48.348;7.878;2024-03-23T03:54:36;98288.00;;;13.80
68012;BMP180;54794;48.348;7.878;2024-03-23T03:57:02;98278.00;;;13.60
68012;BMP180;54794;48.348;7.878;2024-03-23T03:59:29;98264.00;;;13.50
68012;BMP180;54794;48.348;7.878;2024-03-23T04:01:55;98250.00;;;13.80
68012;BMP180;54794;48.348;7.878;2024-03-23T04:04:21;98287.00;;;13.70
68012;BMP180;54794;48.348;7.878;2024-03-23T04:06:48;98331.00;;;13.40
68012;BMP180;54794;48.348;7.878;2024-03-23T04:09:13;98338.00;;;13.20
68012;BMP180;54794;48.348;7.878;2024-03-23T04:11:40;98313.00;;;13.20
68012;BMP180;54794;48.348;7.878;2024-03-23T04:14:06;98291.00;;;13.00
68012;BMP180;54794;48.348;7.878;2024-03-23T04:16:35;98295.00;;;13.30
68012;BMP180;54794;48.348;7.878;2024-03-23T04:19:01;98303.00;;;12.90
68012;BMP180;54794;48.348;7.878;2024-03-23T04:21:27;98294.00;;;13.20
68012;BMP180;54794;48.348;7.878;2024-03-23T04:23:53;98304.00;;;13.00
68012;BMP180;54794;48.348;7.878;2024-03-23T04:26:19;98309.00;;;13.10
68012;BMP180;54794;48.348;7.878;2024-03-23T04:28:44;98327.00;;;13.10
68012;BMP180;54794;48.348;7.878;2024-03-23T04:31:10;98327.00;;;13.00
68012;BMP180;54794;48.348;7.878;2024-03-23T04:33:36;98336.00;;;13.10
68012;BMP180;54794;48.348;7.878;2024-03-23T04:36:02;98342.00;;;13.00
68012;BMP180;54794;48.348;7.878;2024-03-23T04:38:28;98358.00;;;13.00
68012;BMP180;54794;48.348;7.878;2024-03-23T04:40:58;98358.00;;;12.90
68012;BMP180;54794;48.348;7.878;2024-03-23T04:43:25;98366.00;;;12.90
68012;BMP180;54794;48.348;7.878;2024-03-23T04:45:51;98369.00;;;12.50
68012;BMP180;54794;48.348;7.878;2024-03-23T04:48:20;98377.00;;;12.50
68012;BMP180;54794;48.348;7.878;2024-03-23T04:50:46;98376.00;;;13.00
68012;BMP180;54794;48.348;7.878;2024-03-23T04:53:12;98389.00;;;13.00
68012;BMP180;54794;48.348;7.878;2024-03-23T04:55:38;98392.00;;;13.10
68012;BMP180;54794;48.348;7.878;2024-03-23T04:58:04;98398.00;;;13.10
68012;BMP180;54794;48.348;7.878;2024-03-23T05:00:29;98407.00;;;13.30
68012;BMP180;54794;48.348;7.878;2024-03-23T05:02:55;98403.00;;;13.40
68012;BMP180;54794;48.348;7.878;2024-03-23T05:05:21;98415.00;;;13.50
68012;BMP180;54794;48.348;7.878;2024-03-23T05:07:47;98421.00;;;13.40
68012;BMP180;54794;48.348;7.878;2024-03-23T05:10:12;98421.00;;;13.00
68012;BMP180;54794;48.348;7.878;2024-03-23T05:12:39;98417.00;;;13.10
68012;BMP180;54794;48.348;7.878;2024-03-23T05:15:06;98420.00;;;13.40
68012;BMP180;54794;48.348;7.878;2024-03-23T05:17:33;98417.00;;;13.50
68012;BMP180;54794;48.348;7.878;2024-03-23T05:19:59;98423.00;;;13.00
68012;BMP180;54794;48.348;7.878;2024-03-23T05:22:26;98414.00;;;13.20
68012;BMP180;54794;48.348;7.878;2024-03-23T05:24:53;98423.00;;;13.30
68012;BMP180;54794;48.348;7.878;2024-03-23T05:27:19;98433.00;;;12.90
68012;BMP180;54794;48.348;7.878;2024-03-23T05:29:45;98435.00;;;12.90
68012;BMP180;54794;48.348;7.878;2024-03-23T05:32:10;98446.00;;;13.10
68012;BMP180;54794;48.348;7.878;2024-03-23T05:34:36;98446.00;;;12.90
68012;BMP180;54794;48.348;7.878;2024-03-23T05:37:02;98472.00;;;12.40
68012;BMP180;54794;48.348;7.878;2024-03-23T05:39:28;98472.00;;;12.60
68012;BMP180;54794;48.348;7.878;2024-03-23T05:41:54;98471.00;;;12.30
68012;BMP180;54794;48.348;7.878;2024-03-23T05:44:20;98496.00;;;12.00
68012;BMP180;54794;48.348;7.878;2024-03-23T05:46:45;98494.00;;;11.90
68012;BMP180;54794;48.348;7.878;2024-03-23T05:49:15;98496.00;;;12.10
68012;BMP180;54794;48.348;7.878;2024-03-23T05:51:43;98506.00;;;11.90
68012;BMP180;54794;48.348;7.878;2024-03-23T05:54:09;98515.00;;;11.60
68012;BMP180;54794;48.348;7.878;2024-03-23T05:56:35;98514.00;;;11.70
68012;BMP180;54794;48.348;7.878;2024-03-23T05:59:00;98520.00;;;11.70
68012;BMP180;54794;48.348;7.878;2024-03-23T06:01:26;98529.00;;;12.10
68012;BMP180;54794;48.348;7.878;2024-03-23T06:03:54;98542.00;;;11.80
68012;BMP180;54794;48.348;7.878;2024-03-23T06:06:20;98554.00;;;11.90
68012;BMP180;54794;48.348;7.878;2024-03-23T06:08:46;98557.00;;;11.50
68012;BMP180;54794;48.348;7.878;2024-03-23T06:11:12;98554.00;;;11.60
68012;BMP180;54794;48.348;7.878;2024-03-23T06:13:37;98545.00;;;11.90
68012;BMP180;54794;48.348;7.878;2024-03-23T06:16:03;98543.00;;;11.90
68012;BMP180;54794;48.348;7.878;2024-03-23T06:18:29;98522.00;;;11.90
68012;BMP180;54794;48.348;7.878;2024-03-23T06:20:55;98530.00;;;11.70
68012;BMP180;54794;48.348;7.878;2024-03-23T06:23:21;98563.00;;;11.70
68012;BMP180;54794;48.348;7.878;2024-03-23T06:25:47;98566.00;;;11.80
68012;BMP180;54794;48.348;7.878;2024-03-23T06:28:13;98574.00;;;11.90
68012;BMP180;54794;48.348;7.878;2024-03-23T06:30:39;98566.00;;;12.00
68012;BMP180;54794;48.348;7.878;2024-03-23T06:33:05;98567.00;;;11.90
68012;BMP180;54794;48.348;7.878;2024-03-23T06:35:31;98581.00;;;11.60
68012;BMP180;54794;48.348;7.878;2024-03-23T06:37:57;98592.00;;;11.60
68012;BMP180;54794;48.348;7.878;2024-03-23T06:40:24;98614.00;;;11.50
68012;BMP180;54794;48.348;7.878;2024-03-23T06:42:49;98640.00;;;11.40
68012;BMP180;54794;48.348;7.878;2024-03-23T06:45:16;98639.00;;;11.50
68012;BMP180;54794;48.348;7.878;2024-03-23T06:47:42;98630.00;;;11.80
68012;BMP180;54794;48.348;7.878;2024-03-23T06:50:08;98632.00;;;11.50
68012;BMP180;54794;48.348;7.878;2024-03-23T06:52:36;98643.00;;;11.00
68012;BMP180;54794;48.348;7.878;2024-03-23T06:55:01;98654.00;;;11.10
68012;BMP180;54794;48.348;7.878;2024-03-23T06:57:30;98667.00;;;10.90
68012;BMP180;54794;48.348;7.878;2024-03-23T06:59:55;98667.00;;;11.10
68012;BMP180;54794;48.348;7.878;2024-03-23T07:02:21;98683.00;;;10.90
68012;BMP180;54794;48.348;7.878;2024-03-23T07:04:47;98682.00;;;11.20
68012;BMP180;54794;48.348;7.878;2024-03-23T07:07:13;98694.00;;;11.30
68012;BMP180;54794;48.348;7.878;2024-03-23T07:09:39;98697.00;;;10.70
68012;BMP180;54794;48.348;7.878;2024-03-23T07:12:05;98714.00;;;10.60
68012;BMP180;54794;48.348;7.878;2024-03-23T07:14:31;98718.00;;;10.70
68012;BMP180;54794;48.348;7.878;2024-03-23T07:16:56;98721.00;;;11.00
68012;BMP180;54794;48.348;7.878;2024-03-23T07:19:22;98716.00;;;10.90
68012;BMP180;54794;48.348;7.878;2024-03-23T07:21:50;98725.00;;;11.10
68012;BMP180;54794;48.348;7.878;2024-03-23T07:24:16;98715.00;;;11.00
68012;BMP180;54794;48.348;7.878;2024-03-23T07:26:41;98739.00;;;10.90
68012;BMP180;54794;48.348;7.878;2024-03-23T07:29:07;98740.00;;;11.00
68012;BMP180;54794;48.348;7.878;2024-03-23T07:31:33;98730.00;;;10.80
68012;BMP180;54794;48.348;7.878;2024-03-23T07:33:59;98747.00;;;10.60
68012;BMP180;54794;48.348;7.878;2024-03-23T07:36:25;98749.00;;;10.60
68012;BMP180;54794;48.348;7.878;2024-03-23T07:38:51;98751.00;;;10.90
68012;BMP180;54794;48.348;7.878;2024-03-23T07:41:20;98761.00;;;10.70
68012;BMP180;54794;48.348;7.878;2024-03-23T07:43:47;98769.00;;;11.00
68012;BMP180;54794;48.348;7.878;2024-03-23T07:46:15;98779.00;;;11.40
68012;BMP180;54794;48.348;7.878;2024-03-23T07:48:41;98780.00;;;11.50
68012;BMP180;54794;48.348;7.878;2024-03-23T07:51:15;98773.00;;;11.60
68012;BMP180;54794;48.348;7.878;2024-03-23T07:53:43;98777.00;;;11.60
68012;BMP180;54794;48.348;7.878;2024-03-23T07:56:10;98782.00;;;11.90
68012;BMP180;54794;48.348;7.878;2024-03-23T07:58:36;98794.00;;;11.90
68012;BMP180;54794;48.348;7.878;2024-03-23T08:03:34;98787.00;;;12.00
68012;BMP180;54794;48.348;7.878;2024-03-23T08:08:36;98811.00;;;11.50
68012;BMP180;54794;48.348;7.878;2024-03-23T08:11:02;98814.00;;;11.30
68012;BMP180;54794;48.348;7.878;2024-03-23T08:13:29;98824.00;;;11.20
68012;BMP180;54794;48.348;7.878;2024-03-23T08:16:02;98842.00;;;11.10
68012;BMP180;54794;48.348;7.878;2024-03-23T08:18:29;98849.00;;;11.00
68012;BMP180;54794;48.348;7.878;2024-03-23T08:20:58;98852.00;;;11.00
68012;BMP180;54794;48.348;7.878;2024-03-23T08:23:28;98853.00;;;11.00
68012;BMP180;54794;48.348;7.878;2024-03-23T08:26:00;98868.00;;;10.90
68012;BMP180;54794;48.348;7.878;2024-03-23T08:28:27;98862.00;;;11.20
68012;BMP180;54794;48.348;7.878;2024-03-23T08:30:54;98863.00;;;11.20
68012;BMP180;54794;48.348;7.878;2024-03-23T08:33:20;98871.00;;;11.70
68012;BMP180;54794;48.348;7.878;2024-03-23T08:36:00;98874.00;;;11.70
68012;BMP180;54794;48.348;7.878;2024-03-23T08:38:27;98865.00;;;11.10
68012;BMP180;54794;48.348;7.878;2024-03-23T08:41:11;98865.00;;;11.10
68012;BMP180;54794;48.348;7.878;2024-03-23T08:43:39;98860.00;;;12.40
68012;BMP180;54794;48.348;7.878;2024-03-23T08:46:06;98854.00;;;12.60
68012;BMP180;54794;48.348;7.878;2024-03-23T08:48:37;98846.00;;;12.90
68012;BMP180;54794;48.348;7.878;2024-03-23T08:51:07;98845.00;;;12.60
68012;BMP180;54794;48.348;7.878;2024-03-23T08:53:34;98849.00;;;12.20
68012;BMP180;54794;48.348;7.878;2024-03-23T08:56:01;98862.00;;;12.60
68012;BMP180;54794;48.348;7.878;2024-03-23T08:58:29;98844.00;;;12.50
68012;BMP180;54794;48.348;7.878;2024-03-23T09:00:56;98854.00;;;12.50
68012;BMP180;54794;48.348;7.878;2024-03-23T09:03:25;98857.00;;;11.60
68012;BMP180;54794;48.348;7.878;2024-03-23T09:05:52;98864.00;;;12.10
68012;BMP180;54794;48.348;7.878;2024-03-23T09:08:18;98864.00;;;12.20
68012;BMP180;54794;48.348;7.878;2024-03-23T09:10:44;98865.00;;;11.90
68012;BMP180;54794;48.348;7.878;2024-03-23T09:13:10;98869.00;;;11.90
68012;BMP180;54794;48.348;7.878;2024-03-23T09:15:37;98858.00;;;11.80
68012;BMP180;54794;48.348;7.878;2024-03-23T09:18:03;98859.00;;;12.10
68012;BMP180;54794;48.348;7.878;2024-03-23T09:20:33;98864.00;;;12.50
68012;BMP180;54794;48.348;7.878;2024-03-23T09:22:59;98845.00;;;12.50
68012;BMP180;54794;48.348;7.878;2024-03-23T09:25:24;98850.00;;;12.90
68012;BMP180;54794;48.348;7.878;2024-03-23T09:27:50;98836.00;;;12.90
68012;BMP180;54794;48.348;7.878;2024-03-23T09:30:16;98842.00;;;13.00
68012;BMP180;54794;48.348;7.878;2024-03-23T09:32:46;98835.00;;;13.20
68012;BMP180;54794;48.348;7.878;2024-03-23T09:35:12;98846.00;;;13.20
68012;BMP180;54794;48.348;7.878;2024-03-23T09:37:40;98829.00;;;13.20
68012;BMP180;54794;48.348;7.878;2024-03-23T09:40:09;98834.00;;;12.80
68012;BMP180;54794;48.348;7.878;2024-03-23T09:42:35;98839.00;;;12.90
68012;BMP180;54794;48.348;7.878;2024-03-23T09:45:01;98826.00;;;12.30
68012;BMP180;54794;48.348;7.878;2024-03-23T09:47:28;98827.00;;;12.60
68012;BMP180;54794;48.348;7.878;2024-03-23T09:49:54;98828.00;;;13.50
68012;BMP180;54794;48.348;7.878;2024-03-23T09:52:20;98837.00;;;12.60
68012;BMP180;54794;48.348;7.878;2024-03-23T09:54:46;98842.00;;;11.80
68012;BMP180;54794;48.348;7.878;2024-03-23T09:57:12;98851.00;;;12.00
68012;BMP180;54794;48.348;7.878;2024-03-23T09:59:37;98847.00;;;11.90
68012;BMP180;54794;48.348;7.878;2024-03-23T10:02:03;98853.00;;;12.00
68012;BMP180;54794;48.348;7.878;2024-03-23T10:04:39;98862.00;;;11.80
68012;BMP180;54794;48.348;7.878;2024-03-23T10:07:15;98861.00;;;11.40
68012;BMP180;54794;48.348;7.878;2024-03-23T10:09:42;98876.00;;;11.30
68012;BMP180;54794;48.348;7.878;2024-03-23T10:12:10;98874.00;;;11.00
68012;BMP180;54794;48.348;7.878;2024-03-23T10:14:36;98898.00;;;11.10
68012;BMP180;54794;48.348;7.878;2024-03-23T10:17:22;98946.00;;;10.50
68012;BMP180;54794;48.348;7.878;2024-03-23T10:19:52;98985.00;;;9.40
68012;BMP180;54794;48.348;7.878;2024-03-23T10:22:22;98979.00;;;8.60
68012;BMP180;54794;48.348;7.878;2024-03-23T10:24:49;98981.00;;;9.00
68012;BMP180;54794;48.348;7.878;2024-03-23T10:27:15;98996.00;;;8.60
68012;BMP180;54794;48.348;7.878;2024-03-23T10:29:43;98999.00;;;8.50
68012;BMP180;54794;48.348;7.878;2024-03-23T10:32:11;99013.00;;;7.90
68012;BMP180;54794;48.348;7.878;2024-03-23T10:34:37;98986.00;;;8.80
68012;BMP180;54794;48.348;7.878;2024-03-23T10:37:04;98980.00;;;8.90
68012;BMP180;54794;48.348;7.878;2024-03-23T10:39:35;98972.00;;;9.50
68012;BMP180;54794;48.348;7.878;2024-03-23T10:42:03;98951.00;;;9.90
68012;BMP180;54794;48.348;7.878;2024-03-23T10:44:29;98945.00;;;10.00
68012;BMP180;54794;48.348;7.878;2024-03-23T10:47:01;98958.00;;;10.10
68012;BMP180;54794;48.348;7.878;2024-03-23T10:49:28;98947.00;;;10.20
68012;BMP180;54794;48.348;7.878;2024-03-23T10:52:05;98949.00;;;10.60
68012;BMP180;54794;48.348;7.878;2024-03-23T10:54:32;98937.00;;;10.70
68012;BMP180;54794;48.348;7.878;2024-03-23T10:57:17;98950.00;;;10.70
68012;BMP180;54794;48.348;7.878;2024-03-23T10:59:46;98953.00;;;10.70
68012;BMP180;54794;48.348;7.878;2024-03-23T11:02:19;98958.00;;;10.70
68012;BMP180;54794;48.348;7.878;2024-03-23T11:04:45;98957.00;;;10.70
68012;BMP180;54794;48.348;7.878;2024-03-23T11:09:55;98954.00;;;10.30
68012;BMP180;54794;48.348;7.878;2024-03-23T11:15:03;98945.00;;;10.30
68012;BMP180;54794;48.348;7.878;2024-03-23T11:17:29;98943.00;;;10.40
68012;BMP180;54794;48.348;7.878;2024-03-23T11:19:59;98937.00;;;10.50
68012;BMP180;54794;48.348;7.878;2024-03-23T11:25:14;98935.00;;;10.90
68012;BMP180;54794;48.348;7.878;2024-03-23T11:27:40;98941.00;;;11.10
68012;BMP180;54794;48.348;7.878;2024-03-23T11:30:13;98935.00;;;10.50
68012;BMP180;54794;48.348;7.878;2024-03-23T11:32:40;98936.00;;;10.70
68012;BMP180;54794;48.348;7.878;2024-03-23T11:35:06;98935.00;;;11.10
68012;BMP180;54794;48.348;7.878;2024-03-23T11:37:32;98925.00;;;11.30
68012;BMP180;54794;48.348;7.878;2024-03-23T11:39:58;98929.00;;;11.30
68012;BMP180;54794;48.348;7.878;2024-03-23T11:42:23;98924.00;;;11.60
68012;BMP180;54794;48.348;7.878;2024-03-23T11:44:49;98920.00;;;11.80
68012;BMP180;54794;48.348;7.878;2024-03-23T11:47:15;98913.00;;;11.90
68012;BMP180;54794;48.348;7.878;2024-03-23T11:49:41;98916.00;;;11.40
68012;BMP180;54794;48.348;7.878;2024-03-23T11:52:07;98907.00;;;11.40
68012;BMP180;54794;48.348;7.878;2024-03-23T11:54:35;98905.00;;;11.20
68012;BMP180;54794;48.348;7.878;2024-03-23T11:57:03;98902.00;;;11.50
68012;BMP180;54794;48.348;7.878;2024-03-23T12:01:57;98895.00;;;11.50
68012;BMP180;54794;48.348;7.878;2024-03-23T12:04:29;98883.00;;;11.80
68012;BMP180;54794;48.348;7.878;2024-03-23T12:07:15;98880.00;;;12.10
68012;BMP180;54794;48.348;7.878;2024-03-23T12:09:45;98872.00;;;12.50
68012;BMP180;54794;48.348;7.878;2024-03-23T12:12:15;98867.00;;;12.50
68012;BMP180;54794;48.348;7.878;2024-03-23T12:14:42;98849.00;;;12.40
68012;BMP180;54794;48.348;7.878;2024-03-23T12:17:13;98866.00;;;11.80
68012;BMP180;54794;48.348;7.878;2024-03-23T12:19:40;98853.00;;;11.60
68012;BMP180;54794;48.348;7.878;2024-03-23T12:22:10;98844.00;;;11.50
68012;BMP180;54794;48.348;7.878;2024-03-23T12:24:36;98844.00;;;11.60
68012;BMP180;54794;48.348;7.878;2024-03-23T12:27:05;98849.00;;;12.00
68012;BMP180;54794;48.348;7.878;2024-03-23T12:29:31;98855.00;;;11.60
68012;BMP180;54794;48.348;7.878;2024-03-23T12:32:01;98841.00;;;11.60
68012;BMP180;54794;48.348;7.878;2024-03-23T12:34:28;98845.00;;;11.50
68012;BMP180;54794;48.348;7.878;2024-03-23T12:36:54;98856.00;;;11.40
68012;BMP180;54794;48.348;7.878;2024-03-23T12:39:20;98833.00;;;11.00
68012;BMP180;54794;48.348;7.878;2024-03-23T12:41:49;98846.00;;;11.30
68012;BMP180;54794;48.348;7.878;2024-03-23T12:44:15;98831.00;;;12.40
68012;BMP180;54794;48.348;7.878;2024-03-23T12:46:42;98820.00;;;13.40
68012;BMP180;54794;48.348;7.878;2024-03-23T12:49:08;98814.00;;;13.30
68012;BMP180;54794;48.348;7.878;2024-03-23T12:51:34;98816.00;;;13.70
68012;BMP180;54794;48.348;7.878;2024-03-23T12:54:00;98803.00;;;13.40
68012;BMP180;54794;48.348;7.878;2024-03-23T12:56:26;98787.00;;;13.60
68012;BMP180;54794;48.348;7.878;2024-03-23T12:58:54;98806.00;;;13.90
68012;BMP180;54794;48.348;7.878;2024-03-23T13:01:23;98807.00;;;13.50
68012;BMP180;54794;48.348;7.878;2024-03-23T13:03:52;98796.00;;;13.60
68012;BMP180;54794;48.348;7.878;2024-03-23T13:06:18;98794.00;;;14.20
68012;BMP180;54794;48.348;7.878;2024-03-23T13:08:45;98782.00;;;14.70
68012;BMP180;54794;48.348;7.878;2024-03-23T13:11:12;98793.00;;;14.70
68012;BMP180;54794;48.348;7.878;2024-03-23T13:13:38;98801.00;;;14.00
68012;BMP180;54794;48.348;7.878;2024-03-23T13:16:05;98794.00;;;14.50
68012;BMP180;54794;48.348;7.878;2024-03-23T13:18:31;98782.00;;;14.90
68012;BMP180;54794;48.348;7.878;2024-03-23T13:20:58;98780.00;;;14.50
68012;BMP180;54794;48.348;7.878;2024-03-23T13:23:24;98771.00;;;13.40
68012;BMP180;54794;48.348;7.878;2024-03-23T13:25:51;98754.00;;;13.50
68012;BMP180;54794;48.348;7.878;2024-03-23T13:28:22;98755.00;;;13.00
68012;BMP180;54794;48.348;7.878;2024-03-23T13:30:55;98759.00;;;12.50
68012;BMP180;54794;48.348;7.878;2024-03-23T13:33:22;98766.00;;;12.20
68012;BMP180;54794;48.348;7.878;2024-03-23T13:35:55;98763.00;;;12.10
68012;BMP180;54794;48.348;7.878;2024-03-23T13:38:22;98756.00;;;12.10
68012;BMP180;54794;48.348;7.878;2024-03-23T13:40:56;98766.00;;;12.20
68012;BMP180;54794;48.348;7.878;2024-03-23T13:43:23;98767.00;;;11.90
68012;BMP180;54794;48.348;7.878;2024-03-23T13:45:51;98776.00;;;11.70
68012;BMP180;54794;48.348;7.878;2024-03-23T13:48:20;98777.00;;;11.30
68012;BMP180;54794;48.348;7.878;2024-03-23T13:50:46;98768.00;;;12.00
68012;BMP180;54794;48.348;7.878;2024-03-23T13:53:14;98769.00;;;12.00
68012;BMP180;54794;48.348;7.878;2024-03-23T13:55:47;98777.00;;;12.90
68012;BMP180;54794;48.348;7.878;2024-03-23T13:58:16;98772.00;;;12.30
68012;BMP180;54794;48.348;7.878;2024-03-23T14:00:42;98761.00;;;12.00
68012;BMP180;54794;48.348;7.878;2024-03-23T14:03:12;98766.00;;;11.60
68012;BMP180;54794;48.348;7.878;2024-03-23T14:05:38;98772.00;;;11.80
68012;BMP180;54794;48.348;7.878;2024-03-23T14:08:08;98771.00;;;11.50
68012;BMP180;54794;48.348;7.878;2024-03-23T14:10:34;98767.00;;;11.50
68012;BMP180;54794;48.348;7.878;2024-03-23T14:13:02;98772.00;;;11.70
68012;BMP180;54794;48.348;7.878;2024-03-23T14:15:29;98792.00;;;11.50
68012;BMP180;54794;48.348;7.878;2024-03-23T14:17:56;98785.00;;;10.60
68012;BMP180;54794;48.348;7.878;2024-03-23T14:20:22;98807.00;;;10.80
68012;BMP180;54794;48.348;7.878;2024-03-23T14:22:48;98802.00;;;10.60
68012;BMP180;54794;48.348;7.878;2024-03-23T14:25:14;98796.00;;;10.80
68012;BMP180;54794;48.348;7.878;2024-03-23T14:27:40;98800.00;;;10.60
68012;BMP180;54794;48.348;7.878;2024-03-23T14:30:07;98785.00;;;11.00
68012;BMP180;54794;48.348;7.878;2024-03-23T14:32:32;98780.00;;;11.60
68012;BMP180;54794;48.348;7.878;2024-03-23T14:35:06;98773.00;;;11.90
68012;BMP180;54794;48.348;7.878;2024-03-23T14:37:39;98786.00;;;12.80
68012;BMP180;54794;48.348;7.878;2024-03-23T14:40:07;98782.00;;;13.40
68012;BMP180;54794;48.348;7.878;2024-03-23T14:42:33;98798.00;;;12.60
68012;BMP180;54794;48.348;7.878;2024-03-23T14:44:59;98810.00;;;12.10
68012;BMP180;54794;48.348;7.878;2024-03-23T14:47:25;98802.00;;;11.60
68012;BMP180;54794;48.348;7.878;2024-03-23T14:49:51;98803.00;;;11.30
68012;BMP180;54794;48.348;7.878;2024-03-23T14:52:17;98795.00;;;11.50
68012;BMP180;54794;48.348;7.878;2024-03-23T14:54:44;98794.00;;;11.30
68012;BMP180;54794;48.348;7.878;2024-03-23T14:57:10;98794.00;;;10.70
68012;BMP180;54794;48.348;7.878;2024-03-23T14:59:36;98799.00;;;11.00
68012;BMP180;54794;48.348;7.878;2024-03-23T15:02:04;98820.00;;;10.90
68012;BMP180;54794;48.348;7.878;2024-03-23T15:04:30;98835.00;;;10.30
68012;BMP180;54794;48.348;7.878;2024-03-23T15:06:56;98835.00;;;9.80
68012;BMP180;54794;48.348;7.878;2024-03-23T15:09:21;98850.00;;;9.60
68012;BMP180;54794;48.348;7.878;2024-03-23T15:11:47;98856.00;;;9.10
68012;BMP180;54794;48.348;7.878;2024-03-23T15:14:14;98856.00;;;9.20
68012;BMP180;54794;48.348;7.878;2024-03-23T15:16:40;98864.00;;;9.30